Time;durP1;ratioP1;P1;durP2;ratioP2;P2;SDS_P1;SDS_P2;PMS_P1;PMS_P2;Temp;Humidity;BMP_temperature;BMP_pressure;BME280_temperature;BME280_humidity;BME280_pressure;Samples;Min_cycle;Max_cycle;Signal;HPM_P1;HPM_P2
2023/01/02 00:02:38;;;;;;;195.55;120.63;;;;;;;2.20;93.24;98970.59;10445280;28;20024;-53
2023/01/02 00:07:37;;;;;;;178.25;107.15;;;;;;;2.17;93.33;98968.78;10427159;28;20048;-52
2023/01/02 00:12:36;;;;;;;193.68;120.70;;;;;;;2.10;93.81;98976.94;10431721;28;20068;-52
2023/01/02 00:17:35;;;;;;;214.35;124.40;;;;;;;2.07;93.73;98964.00;10435018;28;20052;-53
2023/01/02 00:22:34;;;;;;;181.40;112.50;;;;;;;2.10;93.95;98968.38;10438957;28;20108;-53
2023/01/02 00:27:33;;;;;;;177.50;106.65;;;;;;;2.08;94.22;98967.44;10437951;28;20028;-50
2023/01/02 00:32:32;;;;;;;165.80;101.72;;;;;;;2.10;94.01;98965.81;10440844;28;20032;-51
2023/01/02 00:37:31;;;;;;;167.05;98.05;;;;;;;2.12;93.81;98967.66;10442294;28;20112;-51
2023/01/02 00:42:30;;;;;;;162.57;96.80;;;;;;;2.11;94.34;98972.69;10434797;28;20031;-52
2023/01/02 00:47:29;;;;;;;158.35;93.88;;;;;;;2.12;94.50;98975.34;10445327;28;20613;-51
2023/01/02 00:52:28;;;;;;;158.52;95.97;;;;;;;2.13;94.72;98984.78;10435504;28;20119;-53
2023/01/02 00:57:27;;;;;;;159.07;94.97;;;;;;;2.13;94.63;98973.66;10429451;28;20114;-52
2023/01/02 01:02:26;;;;;;;150.30;88.63;;;;;;;2.12;94.71;98969.34;10429508;28;20097;-52
2023/01/02 01:07:24;;;;;;;131.63;76.28;;;;;;;2.03;94.70;98969.75;10443905;28;20452;-51
2023/01/02 01:12:23;;;;;;;134.45;77.10;;;;;;;2.00;94.53;98958.44;10436745;28;20060;-52
2023/01/02 01:17:22;;;;;;;148.48;88.88;;;;;;;1.92;94.48;98946.13;10429307;28;20048;-52
2023/01/02 01:22:21;;;;;;;144.30;90.47;;;;;;;1.86;94.63;98947.53;10438036;28;20027;-52
2023/01/02 01:27:20;;;;;;;174.85;103.85;;;;;;;1.75;95.05;98936.72;10435385;28;20063;-52
2023/01/02 01:32:19;;;;;;;187.10;110.40;;;;;;;1.73;94.81;98938.31;10436034;28;20530;-52
2023/01/02 01:37:18;;;;;;;185.70;109.15;;;;;;;1.61;95.05;98942.78;10441044;28;20494;-53
2023/01/02 01:42:18;;;;;;;193.80;111.82;;;;;;;1.56;94.66;98934.84;10442718;28;20409;-52
2023/01/02 01:47:25;;;;;;;178.00;107.03;;;;;;;1.58;94.93;98938.38;10454890;28;20059;-52
2023/01/02 01:52:29;;;;;;;171.65;99.20;;;;;;;1.58;94.77;98946.06;10454633;28;20075;-51
2023/01/02 01:57:36;;;;;;;148.00;88.13;;;;;;;1.58;94.84;98940.94;10433836;28;20064;-50
2023/01/02 02:02:36;;;;;;;155.30;86.72;;;;;;;1.61;95.03;98937.66;10437723;28;20646;-51
2023/01/02 02:07:41;;;;;;;143.13;84.88;;;;;;;1.64;94.92;98925.88;10483841;28;20075;-52
2023/01/02 02:12:40;;;;;;;152.18;87.20;;;;;;;1.68;94.58;98924.38;10459670;28;20517;-50
2023/01/02 02:18:00;;;;;;;144.73;85.68;;;;;;;1.63;95.07;98926.69;10447848;28;20535;-51
2023/01/02 02:23:39;;;;;;;190.38;115.63;;;;;;;1.61;95.02;98928.28;10447955;28;20111;-51
2023/01/02 02:28:53;;;;;;;201.70;119.40;;;;;;;1.52;94.98;98923.56;10436243;28;20484;-53
2023/01/02 02:33:59;;;;;;;196.23;114.15;;;;;;;1.51;94.82;98910.72;10441847;28;20062;-52
2023/01/02 02:39:13;;;;;;;223.40;127.40;;;;;;;1.46;94.19;98914.72;10439050;28;20075;-51
2023/01/02 02:44:21;;;;;;;252.02;139.65;;;;;;;1.36;94.61;98909.88;10443472;28;20144;-51
2023/01/02 02:49:55;;;;;;;242.93;136.18;;;;;;;1.19;94.53;98908.97;10417692;28;20471;-52
2023/01/02 02:55:05;;;;;;;178.10;100.65;;;;;;;0.99;94.28;98912.97;10415643;28;20078;-52
2023/01/02 03:00:08;;;;;;;160.68;90.97;;;;;;;0.86;94.20;98901.22;10432905;28;20063;-52
2023/01/02 03:05:13;;;;;;;164.25;92.68;;;;;;;0.81;94.11;98895.84;10445443;28;20112;-52
2023/01/02 03:10:30;;;;;;;140.50;79.72;;;;;;;0.79;94.10;98897.44;10431745;28;20436;-50
2023/01/02 03:15:40;;;;;;;154.73;88.15;;;;;;;0.80;94.09;98891.53;10425257;28;20503;-52
2023/01/02 03:20:57;;;;;;;156.68;90.25;;;;;;;0.83;94.07;98891.69;10427972;28;20099;-53
2023/01/02 03:25:58;;;;;;;163.20;91.80;;;;;;;0.83;94.28;98884.03;10444331;28;20067;-52
2023/01/02 03:31:01;;;;;;;152.15;85.18;;;;;;;0.79;94.52;98889.75;10425634;28;20072;-52
2023/01/02 03:36:07;;;;;;;138.02;76.38;;;;;;;0.74;95.12;98891.19;10434186;28;20074;-50
2023/01/02 03:41:30;;;;;;;117.70;63.92;;;;;;;0.73;95.03;98891.97;10425178;28;20067;-54
2023/01/02 03:46:40;;;;;;;107.43;62.60;;;;;;;0.70;94.56;98902.03;10434157;28;20081;-54
2023/01/02 03:51:40;;;;;;;114.40;62.95;;;;;;;0.72;94.36;98912.34;10420508;28;20056;-54
2023/01/02 03:57:02;;;;;;;101.47;57.60;;;;;;;0.76;94.43;98910.03;10436875;28;20083;-49
2023/01/02 04:02:23;;;;;;;111.93;59.72;;;;;;;0.75;94.57;98918.50;10446749;28;20090;-52
2023/01/02 04:07:41;;;;;;;118.13;61.78;;;;;;;0.77;94.79;98927.13;10450144;28;20067;-51
2023/01/02 04:12:45;;;;;;;115.70;61.50;;;;;;;0.77;94.89;98926.25;10455719;28;20450;-53
2023/01/02 04:17:50;;;;;;;111.28;61.17;;;;;;;0.76;95.19;98927.06;10452209;28;20083;-52
2023/01/02 04:23:06;;;;;;;112.35;64.40;;;;;;;0.79;95.19;98930.66;10414770;28;20098;-50
2023/01/02 04:28:16;;;;;;;121.70;70.13;;;;;;;0.76;95.19;98942.38;10443889;28;20098;-50
2023/01/02 04:33:18;;;;;;;131.35;73.93;;;;;;;0.72;95.20;98932.78;10455040;28;20504;-52
2023/01/02 04:38:17;;;;;;;124.70;72.00;;;;;;;0.74;95.23;98939.72;10448481;28;20067;-52
2023/01/02 04:43:19;;;;;;;117.75;63.35;;;;;;;0.68;95.44;98936.81;10414188;28;20036;-53
2023/01/02 04:48:18;;;;;;;103.15;57.50;;;;;;;0.62;95.55;98939.03;10422894;28;20060;-53
2023/01/02 04:53:17;;;;;;;124.40;65.60;;;;;;;0.59;95.78;98937.19;10455015;28;20127;-53
2023/01/02 04:58:16;;;;;;;130.18;69.80;;;;;;;0.57;95.76;98937.88;10449539;28;20918;-49
2023/01/02 05:03:15;;;;;;;130.63;68.72;;;;;;;0.59;95.71;98944.84;10416457;28;20498;-54
2023/01/02 05:08:14;;;;;;;119.75;65.38;;;;;;;0.61;95.69;98944.94;10444892;28;20494;-55
2023/01/02 05:13:13;;;;;;;128.20;68.63;;;;;;;0.51;96.06;98945.19;10450159;28;20055;-52
2023/01/02 05:18:12;;;;;;;119.90;66.00;;;;;;;0.48;96.37;98945.91;10420972;28;20058;-50
2023/01/02 05:28:28;;;;;;;112.07;60.80;;;;;;;0.37;95.79;98949.50;10448359;28;20056;-52
2023/01/02 05:33:27;;;;;;;94.18;51.10;;;;;;;0.21;95.88;98958.81;10421666;28;20095;-52
2023/01/02 05:38:26;;;;;;;91.90;50.97;;;;;;;0.12;95.61;98958.25;10458920;28;20021;-52
2023/01/02 05:43:25;;;;;;;90.50;48.75;;;;;;;0.05;95.13;98958.69;10420749;28;20472;-52
2023/01/02 05:48:24;;;;;;;102.30;54.33;;;;;;;-0.03;95.05;98960.78;10444096;28;20064;-52
2023/01/02 05:53:23;;;;;;;88.07;48.50;;;;;;;-0.09;94.35;98957.88;10417433;28;20121;-50
2023/01/02 05:58:21;;;;;;;74.65;44.15;;;;;;;-0.19;94.53;98961.53;10459129;28;20111;-52
2023/01/02 06:03:20;;;;;;;77.90;45.33;;;;;;;-0.19;94.56;98968.31;10435548;28;20103;-53
2023/01/02 06:08:19;;;;;;;86.10;48.60;;;;;;;-0.20;94.07;98969.13;10460348;28;20067;-51
2023/01/02 06:13:18;;;;;;;97.32;54.60;;;;;;;-0.21;94.71;98972.44;10436036;28;20080;-53
2023/01/02 06:18:17;;;;;;;117.70;60.45;;;;;;;-0.16;95.04;98971.03;10377764;28;20128;-53
2023/01/02 06:23:16;;;;;;;123.47;64.63;;;;;;;-0.13;95.31;98976.34;10381949;28;20147;-52
2023/01/02 06:28:15;;;;;;;146.65;69.60;;;;;;;-0.04;95.22;98984.56;10458631;28;20716;-53
2023/01/02 06:33:14;;;;;;;130.27;74.78;;;;;;;-0.05;95.47;98982.78;10427237;28;20631;-51
2023/01/02 06:38:13;;;;;;;124.55;69.72;;;;;;;0.00;95.70;98991.59;10350726;28;20045;-52
2023/01/02 06:43:12;;;;;;;118.50;65.15;;;;;;;0.15;95.65;98983.13;10451664;28;20119;-50
2023/01/02 06:48:11;;;;;;;116.57;63.67;;;;;;;0.21;96.12;98979.22;10459371;28;20111;-51
2023/01/02 06:53:11;;;;;;;149.90;84.60;;;;;;;0.30;95.86;98971.25;10430283;28;20123;-53
2023/01/02 06:58:10;;;;;;;157.32;94.47;;;;;;;0.55;95.54;98972.69;10423797;28;20067;-53
2023/01/02 07:03:09;;;;;;;213.00;130.00;;;;;;;0.62;95.57;98987.56;10406471;28;20138;-54
2023/01/02 07:08:09;;;;;;;219.77;133.13;;;;;;;0.64;95.53;99001.31;10402108;28;20020;-52
2023/01/02 07:13:07;;;;;;;;;;;;;;;0.69;95.60;98992.25;10267695;28;20076;-51
2023/01/02 07:18:06;;;;;;;219.90;125.60;;;;;;;0.79;95.45;98994.53;10367093;28;19953;-53
2023/01/02 07:23:05;;;;;;;267.80;158.63;;;;;;;0.96;95.31;98990.38;10455779;28;20115;-53
2023/01/02 07:28:04;;;;;;;204.85;123.35;;;;;;;1.16;94.92;98981.28;10445058;28;20039;-52
2023/01/02 07:33:03;;;;;;;198.32;119.60;;;;;;;1.29;94.94;98988.84;10360838;28;20152;-55
2023/01/02 07:38:02;;;;;;;173.95;107.10;;;;;;;1.44;94.70;98990.47;10413089;28;20048;-51
2023/01/02 07:43:01;;;;;;;165.02;105.78;;;;;;;1.65;94.84;98981.41;10379580;28;20084;-54
2023/01/02 07:48:00;;;;;;;158.85;97.40;;;;;;;1.80;94.65;98980.47;10426618;28;20078;-52
2023/01/02 07:52:59;;;;;;;145.95;92.55;;;;;;;1.92;95.16;98988.78;10455325;28;20074;-53
2023/01/02 07:57:58;;;;;;;146.57;91.78;;;;;;;2.13;94.93;98982.22;10420774;28;20036;-50
2023/01/02 08:02:57;;;;;;;149.07;96.57;;;;;;;2.37;94.73;98985.19;10367780;28;20560;-51
2023/01/02 08:07:56;;;;;;;156.68;102.43;;;;;;;2.55;94.51;98969.84;10424485;28;20496;-53
2023/01/02 08:12:56;;;;;;;194.70;128.75;;;;;;;2.82;94.64;98969.47;10455628;28;20448;-53
2023/01/02 08:17:56;;;;;;;161.60;109.85;;;;;;;3.08;94.55;98970.72;10451265;28;20102;-53
2023/01/02 08:22:55;;;;;;;170.77;118.57;;;;;;;3.35;94.24;98972.81;10400568;28;20079;-54
2023/01/02 08:27:54;;;;;;;;;;;;;;;3.63;94.35;98977.56;10433837;28;20064;-51
2023/01/02 08:32:52;;;;;;;158.00;105.07;;;;;;;3.94;94.54;98969.56;10411403;28;19945;-53
2023/01/02 08:37:51;;;;;;;110.18;72.43;;;;;;;4.12;94.30;98964.34;10425866;28;20119;-54
2023/01/02 08:42:52;;;;;;;90.32;61.28;;;;;;;4.35;94.29;98967.06;10413730;28;20127;-54
2023/01/02 08:47:51;;;;;;;78.78;56.80;;;;;;;4.54;94.20;98967.00;10442080;28;20079;-53
2023/01/02 08:52:50;;;;;;;72.55;51.50;;;;;;;4.70;94.09;98951.41;10454143;28;20044;-53
2023/01/02 08:57:48;;;;;;;67.90;47.97;;;;;;;5.02;93.63;98957.03;10426187;28;20060;-54
2023/01/02 09:02:47;;;;;;;71.85;49.28;;;;;;;5.31;92.93;98952.16;10423804;28;20028;-54
2023/01/02 09:07:46;;;;;;;83.03;54.58;;;;;;;5.58;93.20;98930.84;10445534;28;20036;-52
2023/01/02 09:12:45;;;;;;;79.88;55.13;;;;;;;5.86;92.17;98923.34;10452901;28;20016;-54
2023/01/02 09:17:44;;;;;;;83.25;59.65;;;;;;;6.14;91.85;98914.00;10399841;28;20131;-53
2023/01/02 09:22:43;;;;;;;105.65;71.50;;;;;;;6.46;91.75;98902.25;10460029;28;20031;-54
2023/01/02 09:27:42;;;;;;;112.47;78.65;;;;;;;6.80;90.02;98899.09;10435980;28;20032;-51
2023/01/02 09:32:41;;;;;;;114.18;84.00;;;;;;;7.09;89.04;98888.78;10454026;28;20035;-53
2023/01/02 09:37:40;;;;;;;124.43;91.88;;;;;;;7.37;88.30;98876.72;10459592;28;20475;-52
2023/01/02 09:42:40;;;;;;;118.10;90.25;;;;;;;7.71;86.37;98872.56;10460963;28;20393;-51
2023/01/02 09:47:41;;;;;;;115.63;89.60;;;;;;;8.07;85.75;98857.22;10446592;28;20748;-54
2023/01/02 09:52:43;;;;;;;102.35;80.32;;;;;;;8.35;84.18;98853.63;10430464;28;20063;-52
2023/01/02 09:57:45;;;;;;;109.78;83.93;;;;;;;8.64;82.30;98846.56;10442542;28;20067;-54
2023/01/02 10:03:25;;;;;;;96.20;73.05;;;;;;;8.92;81.26;98840.34;10453783;28;20534;-53
2023/01/02 10:08:52;;;;;;;101.22;77.55;;;;;;;9.21;80.13;98816.81;10418846;28;20068;-53
2023/01/02 10:13:59;;;;;;;80.60;63.00;;;;;;;9.47;78.55;98820.00;10446217;28;20063;-55
2023/01/02 10:19:02;;;;;;;62.20;45.88;;;;;;;9.71;77.26;98810.94;10441822;28;20132;-56
2023/01/02 10:24:05;;;;;;;68.80;53.25;;;;;;;10.00;76.12;98798.53;10447450;28;20139;-53
2023/01/02 10:29:16;;;;;;;71.95;53.42;;;;;;;10.27;74.72;98799.88;10439925;28;20068;-54
2023/01/02 10:34:20;;;;;;;64.68;48.88;;;;;;;10.51;72.94;98796.78;10460419;28;20470;-52
2023/01/02 10:39:23;;;;;;;62.40;48.67;;;;;;;10.73;72.34;98785.91;10449812;28;20513;-54
2023/01/02 10:44:26;;;;;;;69.72;50.45;;;;;;;11.00;71.14;98769.88;10464004;28;20133;-53
2023/01/02 10:49:26;;;;;;;54.97;43.10;;;;;;;11.22;69.16;98762.34;10444132;28;20064;-51
2023/01/02 10:54:25;;;;;;;55.10;42.58;;;;;;;11.43;67.79;98751.34;10410582;28;20438;-53
2023/01/02 10:59:27;;;;;;;68.38;50.85;;;;;;;11.62;64.87;98752.44;10449000;28;20090;-53
2023/01/02 11:04:28;;;;;;;40.38;31.50;;;;;;;11.73;66.92;98745.59;10452828;28;20119;-53
2023/01/02 11:09:30;;;;;;;25.58;18.92;;;;;;;11.96;65.81;98737.16;10453824;28;20079;-53
2023/01/02 11:14:34;;;;;;;22.20;15.23;;;;;;;12.16;64.79;98735.63;10422688;28;20067;-54
2023/01/02 11:19:45;;;;;;;13.65;10.48;;;;;;;12.44;63.44;98728.06;10449344;28;20084;-52
2023/01/02 11:25:06;;;;;;;11.80;7.35;;;;;;;12.51;61.30;98722.03;10452121;28;20456;-53
2023/01/02 11:30:07;;;;;;;17.10;10.98;;;;;;;12.77;61.32;98714.38;10428945;28;20078;-53
2023/01/02 11:35:34;;;;;;;18.48;11.20;;;;;;;12.97;60.55;98697.97;10413883;28;20460;-52
2023/01/02 11:40:33;;;;;;;17.02;11.70;;;;;;;13.06;58.79;98701.47;10415227;28;20534;-53
2023/01/02 11:45:35;;;;;;;27.95;16.83;;;;;;;13.28;58.65;98685.91;10455327;28;20556;-54
2023/01/02 11:50:36;;;;;;;21.63;15.05;;;;;;;13.41;58.52;98679.00;10415490;28;20076;-53
2023/01/02 11:56:01;;;;;;;32.33;23.90;;;;;;;13.56;57.43;98679.97;10421388;28;20526;-53
2023/01/02 12:01:16;;;;;;;27.90;21.55;;;;;;;13.63;56.60;98656.47;10451867;28;20162;-54
2023/01/02 12:06:23;;;;;;;30.90;26.88;;;;;;;13.85;55.04;98662.59;10418860;28;20145;-55
2023/01/02 12:11:43;;;;;;;52.75;44.50;;;;;;;14.08;55.21;98660.00;10451740;28;20062;-53
2023/01/02 12:17:00;;;;;;;37.40;29.45;;;;;;;14.25;54.30;98653.00;10434634;28;20550;-53
2023/01/02 12:22:28;;;;;;;37.47;27.67;;;;;;;14.43;54.22;98656.44;10449975;28;20067;-52
2023/01/02 12:27:35;;;;;;;28.40;22.98;;;;;;;14.52;53.73;98640.75;10448794;28;20079;-53
2023/01/02 12:32:59;;;;;;;39.47;26.63;;;;;;;14.70;53.51;98639.84;10429335;28;20128;-53
2023/01/02 12:38:00;;;;;;;34.50;26.00;;;;;;;14.77;52.48;98629.38;10436803;28;20066;-54
2023/01/02 12:43:33;;;;;;;37.97;28.58;;;;;;;14.96;52.35;98631.94;10457317;28;20052;-54
2023/01/02 12:48:51;;;;;;;38.70;30.20;;;;;;;15.04;52.37;98632.78;10453270;28;20673;-53
2023/01/02 12:54:15;;;;;;;39.40;32.42;;;;;;;15.13;53.13;98630.13;10453874;28;20059;-52
2023/01/02 12:59:32;;;;;;;47.40;36.90;;;;;;;15.19;52.92;98630.06;10423445;28;20650;-53
2023/01/02 13:04:37;;;;;;;44.28;35.28;;;;;;;15.24;52.47;98622.19;10453885;28;20067;-50
2023/01/02 13:09:42;;;;;;;42.88;34.63;;;;;;;15.37;52.83;98623.88;10460997;28;20079;-53
2023/01/02 13:14:52;;;;;;;45.92;35.08;;;;;;;15.43;52.30;98622.94;10447741;28;20182;-53
2023/01/02 13:20:00;;;;;;;44.17;35.60;;;;;;;15.48;52.16;98615.06;10436118;28;20076;-53
2023/01/02 13:25:00;;;;;;;51.42;38.90;;;;;;;15.49;52.53;98622.06;10418349;28;20079;-53
2023/01/02 13:30:00;;;;;;;57.65;44.63;;;;;;;15.49;52.58;98615.06;10437531;28;20055;-53
2023/01/02 13:35:02;;;;;;;51.65;37.97;;;;;;;15.52;51.95;98609.81;10427162;28;20051;-52
2023/01/02 13:40:03;;;;;;;51.88;40.53;;;;;;;15.54;52.17;98609.81;10444246;28;20064;-53
2023/01/02 13:45:29;;;;;;;51.95;39.00;;;;;;;15.52;52.23;98612.41;10423144;28;20521;-53
2023/01/02 13:50:33;;;;;;;54.25;41.40;;;;;;;15.48;52.31;98612.44;10474246;28;20064;-54
2023/01/02 13:55:36;;;;;;;56.80;41.40;;;;;;;15.39;52.68;98608.16;10450294;28;20075;-54
2023/01/02 14:00:37;;;;;;;57.42;40.35;;;;;;;15.22;52.48;98609.16;10452036;28;20094;-54
2023/01/02 14:05:57;;;;;;;58.97;44.67;;;;;;;15.06;53.45;98606.59;10456243;28;20063;-52
2023/01/02 14:11:11;;;;;;;62.55;46.28;;;;;;;14.77;53.77;98611.09;10431040;28;20071;-54
2023/01/02 14:16:42;;;;;;;59.00;45.03;;;;;;;14.53;54.52;98613.78;10467032;28;20495;-55
2023/01/02 14:22:06;;;;;;;;;;;;;;;14.18;55.20;98605.16;10464334;28;20087;-54
2023/01/02 14:27:19;;;;;;;53.60;38.75;;;;;;;13.91;55.41;98611.28;10432650;28;19994;-53
2023/01/02 14:32:32;;;;;;;59.83;40.72;;;;;;;13.64;56.21;98616.50;10444994;28;20071;-53
2023/01/02 14:37:39;;;;;;;52.42;38.97;;;;;;;13.31;56.74;98619.03;10427349;28;20146;-53
2023/01/02 14:48:08;;;;;;;48.83;35.50;;;;;;;12.70;57.78;98613.63;10438815;28;20068;-54
2023/01/02 14:53:20;;;;;;;72.37;46.00;;;;;;;12.48;58.67;98613.50;10437960;28;20067;-54
2023/01/02 14:58:39;;;;;;;56.67;40.05;;;;;;;12.19;59.07;98613.34;10453723;28;20079;-53
2023/01/02 15:03:46;;;;;;;46.08;32.50;;;;;;;11.90;59.72;98618.34;10457000;28;20071;-54
2023/01/02 15:08:49;;;;;;;59.03;40.13;;;;;;;11.71;60.14;98619.03;10433126;28;20165;-54
2023/01/02 15:13:50;;;;;;;42.35;31.60;;;;;;;11.57;60.38;98626.72;10445450;28;20147;-54
2023/01/02 15:18:58;;;;;;;43.20;31.08;;;;;;;11.33;60.90;98619.56;10424283;28;20128;-54
2023/01/02 15:23:58;;;;;;;50.15;39.33;;;;;;;11.28;60.91;98627.31;10435481;28;20476;-54
2023/01/02 15:29:17;;;;;;;55.05;40.30;;;;;;;11.13;61.66;98637.56;10434584;28;20484;-53
2023/01/02 15:34:27;;;;;;;80.15;54.70;;;;;;;10.74;63.45;98636.19;10427216;28;20087;-53
2023/01/02 15:39:37;;;;;;;81.60;56.30;;;;;;;10.54;63.81;98641.13;10437751;28;20083;-53
2023/01/02 15:49:55;;;;;;;90.80;58.53;;;;;;;10.12;64.80;98632.78;10434639;28;19974;-55
2023/01/02 15:54:55;;;;;;;91.50;62.67;;;;;;;9.90;65.76;98641.06;10427520;28;20116;-54
2023/01/02 15:59:54;;;;;;;106.13;72.55;;;;;;;9.68;66.68;98643.31;10429532;28;20095;-53
2023/01/02 16:05:27;;;;;;;120.90;84.57;;;;;;;9.49;67.74;98644.72;10427841;28;20056;-53
2023/01/02 16:10:28;;;;;;;99.93;67.75;;;;;;;9.33;68.84;98642.69;10414051;28;20075;-55
2023/01/02 16:15:31;;;;;;;103.68;69.38;;;;;;;9.14;69.82;98652.69;10425722;28;20064;-52
2023/01/02 16:20:30;;;;;;;102.18;69.88;;;;;;;8.83;70.81;98650.31;10439016;28;20120;-55
2023/01/02 16:26:00;;;;;;;;;;;;;;;8.67;71.81;98662.09;10435678;28;20513;-53
2023/01/02 16:31:27;;;;;;;120.80;86.70;;;;;;;8.46;72.88;98658.19;10426011;28;19960;-54
2023/01/02 16:36:27;;;;;;;149.98;102.22;;;;;;;8.30;73.15;98661.28;10443756;28;20373;-54
2023/01/02 16:41:41;;;;;;;225.35;133.63;;;;;;;8.19;73.95;98667.91;10438782;28;20075;-52
2023/01/02 16:46:41;;;;;;;163.73;111.10;;;;;;;7.83;74.98;98619.69;10431727;28;20127;-52
2023/01/02 16:51:44;;;;;;;175.82;120.68;;;;;;;7.87;75.28;98662.84;10438038;28;20129;-53
2023/01/02 16:56:43;;;;;;;210.52;146.02;;;;;;;7.79;75.78;98669.53;10419985;28;20072;-53
2023/01/02 17:01:42;;;;;;;202.88;139.98;;;;;;;7.72;76.65;98665.06;10442015;28;20548;-54
2023/01/02 17:06:40;;;;;;;254.00;175.85;;;;;;;7.61;77.10;98667.34;10443930;28;20033;-54
2023/01/02 17:11:58;;;;;;;298.40;194.98;;;;;;;7.52;77.67;98673.19;10432266;28;20135;-51
2023/01/02 17:16:58;;;;;;;271.88;185.93;;;;;;;7.43;78.07;98675.53;10429277;28;20059;-52
2023/01/02 17:21:57;;;;;;;297.17;208.95;;;;;;;7.30;78.74;98676.00;10451306;28;20107;-54
2023/01/02 17:26:56;;;;;;;286.60;204.43;;;;;;;7.21;78.99;98669.75;10450086;28;20127;-52
2023/01/02 17:31:55;;;;;;;298.38;212.48;;;;;;;7.08;78.98;98666.78;10459380;28;20097;-51
2023/01/02 17:36:55;;;;;;;304.02;214.95;;;;;;;6.95;79.84;98676.75;10441447;28;20070;-52
2023/01/02 17:41:54;;;;;;;333.27;229.35;;;;;;;6.81;79.99;98681.53;10431760;28;20129;-54
2023/01/02 17:46:53;;;;;;;326.02;225.15;;;;;;;6.72;80.93;98689.00;10436635;28;20034;-52
2023/01/02 17:51:52;;;;;;;356.80;245.40;;;;;;;6.59;81.19;98676.59;10419276;28;20040;-54
2023/01/02 17:56:51;;;;;;;364.83;247.23;;;;;;;6.50;81.97;98684.94;10418304;28;20064;-51
2023/01/02 18:01:50;;;;;;;342.58;242.40;;;;;;;6.40;81.70;98677.75;10468175;28;20046;-54
2023/01/02 18:06:49;;;;;;;365.10;250.45;;;;;;;6.32;82.38;98692.09;10453477;28;20106;-51
2023/01/02 18:11:48;;;;;;;414.60;280.08;;;;;;;6.21;82.17;98685.72;10418175;28;20025;-50
2023/01/02 18:16:49;;;;;;;371.30;255.73;;;;;;;6.18;82.45;98691.66;10416776;28;20438;-55
2023/01/02 18:21:48;;;;;;;396.13;265.35;;;;;;;6.10;83.34;98685.41;10431916;28;20072;-53
2023/01/02 18:26:47;;;;;;;433.02;288.70;;;;;;;5.96;83.34;98690.13;10456135;28;20074;-54
2023/01/02 18:31:47;;;;;;;420.42;277.38;;;;;;;5.91;83.17;98695.13;10469448;28;20060;-54
2023/01/02 18:36:47;;;;;;;464.23;303.88;;;;;;;5.80;83.84;98683.59;10445930;28;20068;-54
2023/01/02 18:41:46;;;;;;;411.40;271.02;;;;;;;5.75;83.85;98692.88;10441860;28;20056;-53
2023/01/02 18:46:47;;;;;;;426.45;279.05;;;;;;;5.66;83.92;98702.84;10440870;28;20024;-54
2023/01/02 18:51:46;;;;;;;379.48;251.82;;;;;;;5.62;84.70;98701.88;10446931;28;20067;-53
2023/01/02 18:56:45;;;;;;;372.52;243.15;;;;;;;5.58;84.24;98694.88;10433983;28;20058;-54
2023/01/02 19:01:49;;;;;;;339.45;226.38;;;;;;;5.52;84.55;98695.53;10449760;28;20036;-51
2023/01/02 19:06:51;;;;;;;326.08;216.50;;;;;;;5.45;84.77;98701.28;10454646;28;20123;-54
2023/01/02 19:17:31;;;;;;;306.05;200.55;;;;;;;5.28;85.86;98695.56;10448151;28;20537;-53
2023/01/02 19:22:32;;;;;;;267.98;179.35;;;;;;;5.19;85.86;98694.38;10433897;28;20068;-53
2023/01/02 19:27:38;;;;;;;300.27;197.77;;;;;;;5.16;85.78;98686.53;10446292;28;20068;-53
2023/01/02 19:32:37;;;;;;;297.58;195.30;;;;;;;5.06;86.18;98690.47;10444298;28;20079;-52
2023/01/02 19:37:40;;;;;;;285.00;190.13;;;;;;;4.93;86.35;98691.72;10433365;28;20036;-53
2023/01/02 19:42:39;;;;;;;270.83;174.88;;;;;;;4.89;86.39;98695.84;10450501;28;20071;-53
2023/01/02 19:47:39;;;;;;;317.20;211.27;;;;;;;4.82;86.69;98695.59;10436219;28;20032;-51
2023/01/02 19:52:38;;;;;;;347.67;233.73;;;;;;;4.76;87.07;98697.91;10444451;28;20076;-53
2023/01/02 19:57:37;;;;;;;;;;;;;;;4.67;87.37;98699.34;10448480;28;20495;-54
2023/01/02 20:02:36;;;;;;;371.13;249.57;;;;;;;4.65;87.63;98695.84;10451671;28;19955;-54
2023/01/02 20:07:35;;;;;;;395.27;263.15;;;;;;;4.62;87.70;98693.16;10432138;28;20554;-54
2023/01/02 20:12:39;;;;;;;348.35;228.07;;;;;;;4.59;87.30;98700.72;10447484;28;20467;-55
2023/01/02 20:17:42;;;;;;;327.02;216.73;;;;;;;4.53;87.50;98702.22;10437535;28;20835;-54
2023/01/02 20:22:43;;;;;;;443.25;245.63;;;;;;;4.48;87.57;98704.63;10425559;28;20701;-54
2023/01/02 20:27:43;;;;;;;311.02;206.43;;;;;;;4.42;88.06;98701.78;10430201;28;20459;-53
2023/01/02 20:32:47;;;;;;;343.73;229.25;;;;;;;4.35;88.20;98700.69;10445840;28;20129;-53
2023/01/02 20:37:46;;;;;;;331.88;222.60;;;;;;;4.29;88.21;98700.44;10435671;28;20064;-52
2023/01/02 20:42:45;;;;;;;322.73;218.65;;;;;;;4.26;88.33;98701.19;10449611;28;20756;-54
2023/01/02 20:47:44;;;;;;;385.70;237.75;;;;;;;4.19;88.76;98699.19;10441228;28;20040;-53
2023/01/02 20:52:43;;;;;;;353.92;213.35;;;;;;;4.12;88.86;98694.63;10440506;28;20030;-53
2023/01/02 20:57:42;;;;;;;303.17;195.82;;;;;;;4.08;89.15;98695.34;10448273;28;20024;-54
2023/01/02 21:02:41;;;;;;;314.00;201.27;;;;;;;4.03;89.64;98700.31;10442991;28;20574;-54
2023/01/02 21:07:40;;;;;;;296.63;195.32;;;;;;;3.92;89.49;98698.13;10447326;28;20819;-54
2023/01/02 21:17:57;;;;;;;353.33;241.32;;;;;;;3.86;90.03;98698.72;10441836;28;20554;-54
2023/01/02 21:22:56;;;;;;;335.17;220.15;;;;;;;3.81;90.29;98701.13;10423286;28;20540;-53
2023/01/02 21:27:54;;;;;;;322.42;212.80;;;;;;;3.78;90.09;98703.56;10444667;28;20047;-54
2023/01/02 21:32:53;;;;;;;324.73;207.45;;;;;;;3.68;90.26;98697.97;10436690;28;20505;-54
2023/01/02 21:37:52;;;;;;;271.08;171.32;;;;;;;3.71;90.41;98706.69;10422850;28;20031;-53
2023/01/02 21:42:51;;;;;;;294.63;186.68;;;;;;;3.67;90.58;98694.53;10441325;28;20059;-56
2023/01/02 21:47:51;;;;;;;255.27;160.07;;;;;;;3.61;90.36;98692.59;10439168;28;20063;-52
2023/01/02 21:52:50;;;;;;;234.63;148.18;;;;;;;3.57;90.86;98695.84;10442670;28;20767;-54
2023/01/02 21:57:53;;;;;;;246.35;159.52;;;;;;;3.52;90.65;98688.75;10455766;28;20525;-54
2023/01/02 22:02:52;;;;;;;194.77;124.07;;;;;;;3.47;90.97;98683.44;10441649;28;20082;-54
2023/01/02 22:07:52;;;;;;;196.60;130.27;;;;;;;3.44;90.78;98685.88;10437118;28;20104;-53
2023/01/02 22:12:50;;;;;;;225.82;147.85;;;;;;;3.40;91.04;98676.28;10437645;28;20504;-53
2023/01/02 22:17:49;;;;;;;190.82;125.07;;;;;;;3.33;91.05;98675.19;10431296;28;20048;-53
2023/01/02 22:22:49;;;;;;;181.15;118.72;;;;;;;3.32;90.96;98659.72;10430501;28;20484;-53
2023/01/02 22:27:48;;;;;;;199.25;134.48;;;;;;;3.25;91.05;98660.28;10449297;28;20067;-54
2023/01/02 22:32:47;;;;;;;189.65;123.43;;;;;;;3.17;91.45;98663.38;10463313;28;20044;-53
2023/01/02 22:37:46;;;;;;;292.10;178.77;;;;;;;3.08;91.54;98663.00;10438675;28;20476;-54
2023/01/02 22:42:54;;;;;;;248.02;153.18;;;;;;;3.08;91.74;98657.00;10441248;28;20791;-54
2023/01/02 22:47:58;;;;;;;228.23;142.20;;;;;;;3.02;91.79;98655.91;10439641;28;20072;-54
2023/01/02 22:52:58;;;;;;;190.82;121.05;;;;;;;2.99;91.66;98653.22;10448239;28;20086;-54
2023/01/02 22:57:57;;;;;;;190.02;118.00;;;;;;;2.97;91.42;98649.69;10442849;28;20056;-54
2023/01/02 23:02:56;;;;;;;173.52;111.47;;;;;;;2.94;91.53;98639.31;10458045;28;20122;-53
2023/01/02 23:07:55;;;;;;;214.60;135.15;;;;;;;2.91;91.81;98643.41;10473016;28;20036;-53
2023/01/02 23:12:54;;;;;;;207.75;121.93;;;;;;;2.89;91.70;98645.06;10450017;28;20054;-52
2023/01/02 23:23:10;;;;;;;161.13;100.60;;;;;;;2.80;92.34;98640.41;10444433;28;20128;-53
2023/01/02 23:28:09;;;;;;;141.65;85.88;;;;;;;2.75;92.23;98634.22;10453473;28;20027;-54